Asher, Kentucky
Current Conditions -  °F | °C
As of 4:15 PM on Sunday 21 Dec 2014 (Local Time) from KI35 Reporting Station
Clear Clear  
Wind Chill: 50°   Ceiling: Unl
Heat Index: 50°   Visibility: 10mi
Dew Point: 30°   Wind: 3mph
Humidity: 47%   Direction: 140°SE
Pressure: 30.11"   Gusts: NA
Location:  37.04°N, 83.4°W
Report Text: KI35 212115Z AUTO 14003KT 10SM CLR 10/M01 A3011 RMK AO1
Loading
Personal Weather Stations






























Interactive Weather Map New forecast layout! Learn more

10-Day Weather Forecast

Advertisements
Track Severe Weather on mobile